Pagrindinis puslapis
METAR-TAF:

METAR-TAF

Oro uostai :

Buckland, Aliaska, Jungtinės Amerikos Valstijos

platuma: 65-58-56N, ilguma: 161-09-07W, Aukštis: 7 m

Dabartinis oras

Ataskaita buvo paskelbta 43 minutes, ne 17:56 UTC
Vėjas 18 kt iš Rytų/Pietryčių su gūsio iki 27 kt
Temperatūra -23°C
Drėgmė 70%
Slėgis 1013 hPa
Matomumas: 16.1 km
Giedras dangus

METAR: PABL 161756Z AUTO 11018G27KT 10SM CLR M23/M27 A2992 RMK AO2 PK WND 11028/1742 SLP134 T12281267 11222 21228 53002 FZRANO

Laikas: 09:39 (18:39 UTC)


TAF: trūkstamas

Orai ataskaitas ir orų prognozės (METAR, TAF).

turimą stotys yra geltonos ir raudonos taškus žemėlapyje.

Perkelti pele per norėdami pamatyti stoties vardą.

Tada spustelėkite, norėdami matyti oro stebėjimo ir prognozės.

Norėdami pakeisti žemėlapį: spustelėkite ant žalios mygtukų su juodo kryžiaus žemyn,; žalią mygtuką su brūkšneliu, jei norite nutolinti; arba žalių rodyklių gretimoms žemėlapius.


METAR-TAF: